sensor_id;sensor_type;location;lat;lon;timestamp;temperature;humidity
31799;DHT22;18374;51.136;3.502;2023-09-08T00:00:58;19.20;99.90
31799;DHT22;18374;51.136;3.502;2023-09-08T00:03:25;19.20;99.90
31799;DHT22;18374;51.136;3.502;2023-09-08T00:05:53;19.00;99.90
31799;DHT22;18374;51.136;3.502;2023-09-08T00:08:21;19.00;99.90
31799;DHT22;18374;51.136;3.502;2023-09-08T00:10:49;19.00;99.90
31799;DHT22;18374;51.136;3.502;2023-09-08T00:13:16;19.00;99.90
31799;DHT22;18374;51.136;3.502;2023-09-08T00:15:44;19.10;99.90
31799;DHT22;18374;51.136;3.502;2023-09-08T00:18:12;19.00;99.90
31799;DHT22;18374;51.136;3.502;2023-09-08T00:20:40;18.90;99.90
31799;DHT22;18374;51.136;3.502;2023-09-08T00:23:09;18.80;99.90
31799;DHT22;18374;51.136;3.502;2023-09-08T00:25:37;18.80;99.90
31799;DHT22;18374;51.136;3.502;2023-09-08T00:28:05;18.80;99.90
31799;DHT22;18374;51.136;3.502;2023-09-08T00:30:34;18.80;99.90
31799;DHT22;18374;51.136;3.502;2023-09-08T00:33:01;18.80;99.90
31799;DHT22;18374;51.136;3.502;2023-09-08T00:35:29;18.80;99.90
31799;DHT22;18374;51.136;3.502;2023-09-08T00:37:57;18.80;99.90
31799;DHT22;18374;51.136;3.502;2023-09-08T00:40:27;18.90;99.90
31799;DHT22;18374;51.136;3.502;2023-09-08T00:42:55;18.90;99.90
31799;DHT22;18374;51.136;3.502;2023-09-08T00:45:23;18.90;99.90
31799;DHT22;18374;51.136;3.502;2023-09-08T00:47:52;18.90;99.90
31799;DHT22;18374;51.136;3.502;2023-09-08T00:50:20;19.00;99.90
31799;DHT22;18374;51.136;3.502;2023-09-08T00:52:48;18.90;99.90
31799;DHT22;18374;51.136;3.502;2023-09-08T00:55:18;19.00;99.90
31799;DHT22;18374;51.136;3.502;2023-09-08T00:57:45;19.00;99.90
31799;DHT22;18374;51.136;3.502;2023-09-08T01:00:13;18.80;99.90
31799;DHT22;18374;51.136;3.502;2023-09-08T01:02:41;18.90;99.90
31799;DHT22;18374;51.136;3.502;2023-09-08T01:05:13;18.90;99.90
31799;DHT22;18374;51.136;3.502;2023-09-08T01:07:42;19.00;99.90
31799;DHT22;18374;51.136;3.502;2023-09-08T01:10:13;19.00;99.90
31799;DHT22;18374;51.136;3.502;2023-09-08T01:12:41;19.00;99.90
31799;DHT22;18374;51.136;3.502;2023-09-08T01:15:09;19.00;99.90
31799;DHT22;18374;51.136;3.502;2023-09-08T01:17:37;19.00;99.90
31799;DHT22;18374;51.136;3.502;2023-09-08T01:25:42;18.80;99.90
31799;DHT22;18374;51.136;3.502;2023-09-08T01:28:32;18.80;99.90
31799;DHT22;18374;51.136;3.502;2023-09-08T01:31:01;18.80;99.90
31799;DHT22;18374;51.136;3.502;2023-09-08T01:33:29;18.90;99.90
31799;DHT22;18374;51.136;3.502;2023-09-08T01:35:57;18.90;99.90
31799;DHT22;18374;51.136;3.502;2023-09-08T01:38:26;18.90;99.90
31799;DHT22;18374;51.136;3.502;2023-09-08T01:40:54;18.90;99.90
31799;DHT22;18374;51.136;3.502;2023-09-08T01:43:22;18.80;99.90
31799;DHT22;18374;51.136;3.502;2023-09-08T01:45:51;18.80;99.90
31799;DHT22;18374;51.136;3.502;2023-09-08T01:48:19;18.60;99.90
31799;DHT22;18374;51.136;3.502;2023-09-08T01:50:47;18.60;99.90
31799;DHT22;18374;51.136;3.502;2023-09-08T01:53:15;18.60;99.90
31799;DHT22;18374;51.136;3.502;2023-09-08T01:55:42;18.40;99.90
31799;DHT22;18374;51.136;3.502;2023-09-08T01:58:10;18.30;99.90
31799;DHT22;18374;51.136;3.502;2023-09-08T02:00:38;18.40;99.90
31799;DHT22;18374;51.136;3.502;2023-09-08T02:03:06;18.30;99.90
31799;DHT22;18374;51.136;3.502;2023-09-08T02:05:34;18.30;99.90
31799;DHT22;18374;51.136;3.502;2023-09-08T02:08:06;18.30;99.90
31799;DHT22;18374;51.136;3.502;2023-09-08T02:10:34;18.40;99.90
31799;DHT22;18374;51.136;3.502;2023-09-08T02:13:02;18.40;99.90
31799;DHT22;18374;51.136;3.502;2023-09-08T02:15:30;18.30;99.90
31799;DHT22;18374;51.136;3.502;2023-09-08T02:17:58;18.20;99.90
31799;DHT22;18374;51.136;3.502;2023-09-08T02:20:26;18.10;99.90
31799;DHT22;18374;51.136;3.502;2023-09-08T02:22:54;18.10;99.90
31799;DHT22;18374;51.136;3.502;2023-09-08T02:25:25;18.00;99.90
31799;DHT22;18374;51.136;3.502;2023-09-08T02:27:54;17.90;99.90
31799;DHT22;18374;51.136;3.502;2023-09-08T02:30:22;18.00;99.90
31799;DHT22;18374;51.136;3.502;2023-09-08T02:32:51;17.90;99.90
31799;DHT22;18374;51.136;3.502;2023-09-08T02:35:19;17.80;99.90
31799;DHT22;18374;51.136;3.502;2023-09-08T02:37:47;17.80;99.90
31799;DHT22;18374;51.136;3.502;2023-09-08T02:40:15;17.80;99.90
31799;DHT22;18374;51.136;3.502;2023-09-08T02:42:43;17.90;99.90
31799;DHT22;18374;51.136;3.502;2023-09-08T02:45:11;17.90;99.90
31799;DHT22;18374;51.136;3.502;2023-09-08T02:47:39;17.90;99.90
31799;DHT22;18374;51.136;3.502;2023-09-08T02:50:08;17.90;99.90
31799;DHT22;18374;51.136;3.502;2023-09-08T02:52:36;17.80;99.90
31799;DHT22;18374;51.136;3.502;2023-09-08T02:55:04;17.80;99.90
31799;DHT22;18374;51.136;3.502;2023-09-08T02:57:31;17.90;99.90
31799;DHT22;18374;51.136;3.502;2023-09-08T03:00:00;17.80;99.90
31799;DHT22;18374;51.136;3.502;2023-09-08T03:02:28;17.70;99.90
31799;DHT22;18374;51.136;3.502;2023-09-08T03:04:56;17.70;99.90
31799;DHT22;18374;51.136;3.502;2023-09-08T03:07:24;17.70;99.90
31799;DHT22;18374;51.136;3.502;2023-09-08T03:09:52;17.70;99.90
31799;DHT22;18374;51.136;3.502;2023-09-08T03:12:21;17.80;99.90
31799;DHT22;18374;51.136;3.502;2023-09-08T03:14:49;17.60;99.90
31799;DHT22;18374;51.136;3.502;2023-09-08T03:17:17;17.70;99.90
31799;DHT22;18374;51.136;3.502;2023-09-08T03:19:46;17.70;99.90
31799;DHT22;18374;51.136;3.502;2023-09-08T03:22:14;17.70;99.90
31799;DHT22;18374;51.136;3.502;2023-09-08T03:24:42;17.70;99.90
31799;DHT22;18374;51.136;3.502;2023-09-08T03:27:09;17.70;99.90
31799;DHT22;18374;51.136;3.502;2023-09-08T03:29:37;17.70;99.90
31799;DHT22;18374;51.136;3.502;2023-09-08T03:32:05;17.70;99.90
31799;DHT22;18374;51.136;3.502;2023-09-08T03:34:33;17.60;99.90
31799;DHT22;18374;51.136;3.502;2023-09-08T03:37:01;17.50;99.90
31799;DHT22;18374;51.136;3.502;2023-09-08T03:39:29;17.60;99.90
31799;DHT22;18374;51.136;3.502;2023-09-08T03:41:56;17.60;99.90
31799;DHT22;18374;51.136;3.502;2023-09-08T03:44:24;17.60;99.90
31799;DHT22;18374;51.136;3.502;2023-09-08T03:46:53;17.50;99.90
31799;DHT22;18374;51.136;3.502;2023-09-08T03:49:20;17.50;99.90
31799;DHT22;18374;51.136;3.502;2023-09-08T03:51:48;17.40;99.90
31799;DHT22;18374;51.136;3.502;2023-09-08T03:54:16;17.40;99.90
31799;DHT22;18374;51.136;3.502;2023-09-08T03:56:44;17.40;99.90
31799;DHT22;18374;51.136;3.502;2023-09-08T03:59:11;17.40;99.90
31799;DHT22;18374;51.136;3.502;2023-09-08T04:01:39;17.40;99.90
31799;DHT22;18374;51.136;3.502;2023-09-08T04:04:07;17.40;99.90
31799;DHT22;18374;51.136;3.502;2023-09-08T04:06:36;17.30;99.90
31799;DHT22;18374;51.136;3.502;2023-09-08T04:09:03;17.30;99.90
31799;DHT22;18374;51.136;3.502;2023-09-08T04:11:31;17.30;99.90
31799;DHT22;18374;51.136;3.502;2023-09-08T04:13:59;17.30;99.90
31799;DHT22;18374;51.136;3.502;2023-09-08T04:16:28;17.30;99.90
31799;DHT22;18374;51.136;3.502;2023-09-08T04:18:56;17.30;99.90
31799;DHT22;18374;51.136;3.502;2023-09-08T04:21:24;17.20;99.90
31799;DHT22;18374;51.136;3.502;2023-09-08T04:23:52;17.20;99.90
31799;DHT22;18374;51.136;3.502;2023-09-08T04:26:20;17.30;99.90
31799;DHT22;18374;51.136;3.502;2023-09-08T04:28:47;17.30;99.90
31799;DHT22;18374;51.136;3.502;2023-09-08T04:31:15;17.20;99.90
31799;DHT22;18374;51.136;3.502;2023-09-08T04:33:46;17.20;99.90
31799;DHT22;18374;51.136;3.502;2023-09-08T04:36:14;17.20;99.90
31799;DHT22;18374;51.136;3.502;2023-09-08T04:38:44;17.20;99.90
31799;DHT22;18374;51.136;3.502;2023-09-08T04:41:12;17.10;99.90
31799;DHT22;18374;51.136;3.502;2023-09-08T04:43:40;17.10;99.90
31799;DHT22;18374;51.136;3.502;2023-09-08T04:46:08;17.20;99.90
31799;DHT22;18374;51.136;3.502;2023-09-08T04:48:37;17.20;99.90
31799;DHT22;18374;51.136;3.502;2023-09-08T04:51:07;17.20;99.90
31799;DHT22;18374;51.136;3.502;2023-09-08T04:53:35;17.10;99.90
31799;DHT22;18374;51.136;3.502;2023-09-08T04:56:05;17.20;99.90
31799;DHT22;18374;51.136;3.502;2023-09-08T04:58:33;17.20;99.90
31799;DHT22;18374;51.136;3.502;2023-09-08T05:01:01;17.10;99.90
31799;DHT22;18374;51.136;3.502;2023-09-08T05:03:29;17.10;99.90
31799;DHT22;18374;51.136;3.502;2023-09-08T05:05:59;17.00;99.90
31799;DHT22;18374;51.136;3.502;2023-09-08T05:08:29;17.00;99.90
31799;DHT22;18374;51.136;3.502;2023-09-08T05:10:57;17.00;99.90
31799;DHT22;18374;51.136;3.502;2023-09-08T05:13:24;17.10;99.90
31799;DHT22;18374;51.136;3.502;2023-09-08T05:15:59;17.10;99.90
31799;DHT22;18374;51.136;3.502;2023-09-08T05:18:40;17.20;99.90
31799;DHT22;18374;51.136;3.502;2023-09-08T05:21:09;17.20;99.90
31799;DHT22;18374;51.136;3.502;2023-09-08T05:23:37;17.30;99.90
31799;DHT22;18374;51.136;3.502;2023-09-08T05:26:05;17.30;99.90
31799;DHT22;18374;51.136;3.502;2023-09-08T05:28:33;17.30;99.90
31799;DHT22;18374;51.136;3.502;2023-09-08T05:31:06;17.40;99.90
31799;DHT22;18374;51.136;3.502;2023-09-08T05:33:34;17.40;99.90
31799;DHT22;18374;51.136;3.502;2023-09-08T05:36:03;17.50;99.90
31799;DHT22;18374;51.136;3.502;2023-09-08T05:38:32;17.50;99.90
31799;DHT22;18374;51.136;3.502;2023-09-08T05:41:00;17.50;99.90
31799;DHT22;18374;51.136;3.502;2023-09-08T05:43:28;17.50;99.90
31799;DHT22;18374;51.136;3.502;2023-09-08T05:45:56;17.40;99.90
31799;DHT22;18374;51.136;3.502;2023-09-08T05:48:24;17.40;99.90
31799;DHT22;18374;51.136;3.502;2023-09-08T05:50:52;17.40;99.90
31799;DHT22;18374;51.136;3.502;2023-09-08T05:53:21;17.50;99.90
31799;DHT22;18374;51.136;3.502;2023-09-08T05:55:48;17.50;99.90
31799;DHT22;18374;51.136;3.502;2023-09-08T05:58:16;17.50;99.90
31799;DHT22;18374;51.136;3.502;2023-09-08T06:00:44;17.50;99.90
31799;DHT22;18374;51.136;3.502;2023-09-08T06:03:13;17.50;99.90
31799;DHT22;18374;51.136;3.502;2023-09-08T06:05:41;17.60;99.90
31799;DHT22;18374;51.136;3.502;2023-09-08T06:08:09;17.60;99.90
31799;DHT22;18374;51.136;3.502;2023-09-08T06:10:41;17.60;99.90
31799;DHT22;18374;51.136;3.502;2023-09-08T06:13:09;17.70;99.90
31799;DHT22;18374;51.136;3.502;2023-09-08T06:15:38;17.80;99.90
31799;DHT22;18374;51.136;3.502;2023-09-08T06:18:06;17.90;99.90
31799;DHT22;18374;51.136;3.502;2023-09-08T06:20:34;17.80;99.90
31799;DHT22;18374;51.136;3.502;2023-09-08T06:23:02;17.90;99.90
31799;DHT22;18374;51.136;3.502;2023-09-08T06:25:30;17.90;99.90
31799;DHT22;18374;51.136;3.502;2023-09-08T06:27:58;18.00;99.90
31799;DHT22;18374;51.136;3.502;2023-09-08T06:30:27;18.10;99.90
31799;DHT22;18374;51.136;3.502;2023-09-08T06:32:54;18.20;99.90
31799;DHT22;18374;51.136;3.502;2023-09-08T06:35:23;18.30;99.90
31799;DHT22;18374;51.136;3.502;2023-09-08T06:37:51;18.50;99.90
31799;DHT22;18374;51.136;3.502;2023-09-08T06:40:19;18.60;99.90
31799;DHT22;18374;51.136;3.502;2023-09-08T06:42:46;18.70;99.90
31799;DHT22;18374;51.136;3.502;2023-09-08T06:45:26;18.80;99.90
31799;DHT22;18374;51.136;3.502;2023-09-08T06:47:54;18.90;99.90
31799;DHT22;18374;51.136;3.502;2023-09-08T06:50:23;19.00;99.90
31799;DHT22;18374;51.136;3.502;2023-09-08T06:52:52;19.10;99.90
31799;DHT22;18374;51.136;3.502;2023-09-08T06:55:20;19.20;99.90
31799;DHT22;18374;51.136;3.502;2023-09-08T06:57:48;19.30;99.90
31799;DHT22;18374;51.136;3.502;2023-09-08T07:00:16;19.50;99.90
31799;DHT22;18374;51.136;3.502;2023-09-08T07:02:48;19.60;99.90
31799;DHT22;18374;51.136;3.502;2023-09-08T07:05:17;19.70;99.90
31799;DHT22;18374;51.136;3.502;2023-09-08T07:07:46;19.90;99.90
31799;DHT22;18374;51.136;3.502;2023-09-08T07:10:17;20.10;99.90
31799;DHT22;18374;51.136;3.502;2023-09-08T07:12:45;20.30;99.90
31799;DHT22;18374;51.136;3.502;2023-09-08T07:15:14;20.50;99.90
31799;DHT22;18374;51.136;3.502;2023-09-08T07:17:42;20.60;99.90
31799;DHT22;18374;51.136;3.502;2023-09-08T07:20:11;20.80;99.90
31799;DHT22;18374;51.136;3.502;2023-09-08T07:22:39;20.90;99.90
31799;DHT22;18374;51.136;3.502;2023-09-08T07:25:09;21.00;99.90
31799;DHT22;18374;51.136;3.502;2023-09-08T07:27:37;21.20;99.90
31799;DHT22;18374;51.136;3.502;2023-09-08T07:30:07;21.30;99.90
31799;DHT22;18374;51.136;3.502;2023-09-08T07:32:35;21.50;99.90
31799;DHT22;18374;51.136;3.502;2023-09-08T07:35:03;21.70;99.90
31799;DHT22;18374;51.136;3.502;2023-09-08T07:37:31;21.80;99.90
31799;DHT22;18374;51.136;3.502;2023-09-08T07:39:59;22.00;99.90
31799;DHT22;18374;51.136;3.502;2023-09-08T07:42:28;22.10;99.90
31799;DHT22;18374;51.136;3.502;2023-09-08T07:44:55;22.20;99.90
31799;DHT22;18374;51.136;3.502;2023-09-08T07:47:23;22.30;99.90
31799;DHT22;18374;51.136;3.502;2023-09-08T07:49:51;22.40;99.90
31799;DHT22;18374;51.136;3.502;2023-09-08T07:52:18;22.50;99.90
31799;DHT22;18374;51.136;3.502;2023-09-08T07:54:46;22.60;99.90
31799;DHT22;18374;51.136;3.502;2023-09-08T07:57:14;22.80;99.90
31799;DHT22;18374;51.136;3.502;2023-09-08T07:59:42;22.90;99.90
31799;DHT22;18374;51.136;3.502;2023-09-08T08:02:09;23.00;99.90
31799;DHT22;18374;51.136;3.502;2023-09-08T08:04:38;23.10;99.90
31799;DHT22;18374;51.136;3.502;2023-09-08T08:07:06;23.20;99.90
31799;DHT22;18374;51.136;3.502;2023-09-08T08:09:33;23.30;99.90
31799;DHT22;18374;51.136;3.502;2023-09-08T08:12:01;23.50;99.90
31799;DHT22;18374;51.136;3.502;2023-09-08T08:14:29;23.60;99.90
31799;DHT22;18374;51.136;3.502;2023-09-08T08:16:57;23.80;99.90
31799;DHT22;18374;51.136;3.502;2023-09-08T08:19:24;23.90;99.90
31799;DHT22;18374;51.136;3.502;2023-09-08T08:21:53;24.00;99.90
31799;DHT22;18374;51.136;3.502;2023-09-08T08:24:23;24.10;99.90
31799;DHT22;18374;51.136;3.502;2023-09-08T08:26:51;24.20;99.90
31799;DHT22;18374;51.136;3.502;2023-09-08T08:29:19;24.40;99.90
31799;DHT22;18374;51.136;3.502;2023-09-08T08:31:46;24.60;99.90
31799;DHT22;18374;51.136;3.502;2023-09-08T08:34:14;24.70;99.90
31799;DHT22;18374;51.136;3.502;2023-09-08T08:36:42;24.80;99.90
31799;DHT22;18374;51.136;3.502;2023-09-08T08:39:10;24.90;99.90
31799;DHT22;18374;51.136;3.502;2023-09-08T08:41:38;25.10;99.90
31799;DHT22;18374;51.136;3.502;2023-09-08T08:44:08;25.10;99.90
31799;DHT22;18374;51.136;3.502;2023-09-08T08:46:37;25.20;99.90
31799;DHT22;18374;51.136;3.502;2023-09-08T08:49:06;25.40;99.90
31799;DHT22;18374;51.136;3.502;2023-09-08T08:51:36;25.50;99.90
31799;DHT22;18374;51.136;3.502;2023-09-08T08:54:05;25.60;99.90
31799;DHT22;18374;51.136;3.502;2023-09-08T08:56:35;25.60;99.90
31799;DHT22;18374;51.136;3.502;2023-09-08T08:59:04;25.80;99.90
31799;DHT22;18374;51.136;3.502;2023-09-08T09:01:32;26.00;99.90
31799;DHT22;18374;51.136;3.502;2023-09-08T09:04:00;26.10;99.90
31799;DHT22;18374;51.136;3.502;2023-09-08T09:06:29;26.20;99.90
31799;DHT22;18374;51.136;3.502;2023-09-08T09:08:57;26.20;99.90
31799;DHT22;18374;51.136;3.502;2023-09-08T09:11:25;26.40;99.90
31799;DHT22;18374;51.136;3.502;2023-09-08T09:13:53;26.40;99.90
31799;DHT22;18374;51.136;3.502;2023-09-08T09:16:21;26.40;99.90
31799;DHT22;18374;51.136;3.502;2023-09-08T09:18:57;26.40;99.90
31799;DHT22;18374;51.136;3.502;2023-09-08T09:21:45;26.60;99.90
31799;DHT22;18374;51.136;3.502;2023-09-08T09:24:38;26.80;99.90
31799;DHT22;18374;51.136;3.502;2023-09-08T09:27:14;26.90;99.90
31799;DHT22;18374;51.136;3.502;2023-09-08T09:29:51;27.00;99.90
31799;DHT22;18374;51.136;3.502;2023-09-08T09:32:23;27.00;99.90
31799;DHT22;18374;51.136;3.502;2023-09-08T09:34:53;27.20;99.90
31799;DHT22;18374;51.136;3.502;2023-09-08T09:37:23;27.30;99.90
31799;DHT22;18374;51.136;3.502;2023-09-08T09:39:54;27.40;99.90
31799;DHT22;18374;51.136;3.502;2023-09-08T09:42:22;27.40;99.90
31799;DHT22;18374;51.136;3.502;2023-09-08T09:44:51;27.40;99.90
31799;DHT22;18374;51.136;3.502;2023-09-08T09:47:20;27.50;99.90
31799;DHT22;18374;51.136;3.502;2023-09-08T09:49:48;27.60;99.90
31799;DHT22;18374;51.136;3.502;2023-09-08T09:52:22;27.80;99.90
31799;DHT22;18374;51.136;3.502;2023-09-08T09:54:54;28.00;99.90
31799;DHT22;18374;51.136;3.502;2023-09-08T09:57:24;28.20;99.90
31799;DHT22;18374;51.136;3.502;2023-09-08T09:59:53;28.20;99.90
31799;DHT22;18374;51.136;3.502;2023-09-08T10:02:22;28.20;99.90
31799;DHT22;18374;51.136;3.502;2023-09-08T10:04:50;28.30;99.90
31799;DHT22;18374;51.136;3.502;2023-09-08T10:07:21;28.40;99.90
31799;DHT22;18374;51.136;3.502;2023-09-08T10:09:49;28.40;99.90
31799;DHT22;18374;51.136;3.502;2023-09-08T10:12:18;28.50;99.90
31799;DHT22;18374;51.136;3.502;2023-09-08T10:14:49;28.70;99.90
31799;DHT22;18374;51.136;3.502;2023-09-08T10:17:22;28.70;99.90
31799;DHT22;18374;51.136;3.502;2023-09-08T10:19:54;28.70;99.90
31799;DHT22;18374;51.136;3.502;2023-09-08T10:22:30;28.80;99.90
31799;DHT22;18374;51.136;3.502;2023-09-08T10:25:04;29.00;99.90
31799;DHT22;18374;51.136;3.502;2023-09-08T10:27:33;28.90;99.90
31799;DHT22;18374;51.136;3.502;2023-09-08T10:30:05;29.00;99.90
31799;DHT22;18374;51.136;3.502;2023-09-08T10:32:35;29.00;99.90
31799;DHT22;18374;51.136;3.502;2023-09-08T10:35:04;29.20;99.90
31799;DHT22;18374;51.136;3.502;2023-09-08T10:37:33;29.30;99.90
31799;DHT22;18374;51.136;3.502;2023-09-08T10:40:34;29.50;99.90
31799;DHT22;18374;51.136;3.502;2023-09-08T10:43:09;29.50;99.90
31799;DHT22;18374;51.136;3.502;2023-09-08T10:45:37;29.50;99.90
31799;DHT22;18374;51.136;3.502;2023-09-08T10:48:09;29.40;99.90
31799;DHT22;18374;51.136;3.502;2023-09-08T10:50:42;29.60;99.90
31799;DHT22;18374;51.136;3.502;2023-09-08T10:53:16;29.90;99.90
31799;DHT22;18374;51.136;3.502;2023-09-08T10:55:47;29.90;99.90
31799;DHT22;18374;51.136;3.502;2023-09-08T10:58:38;30.00;99.90
31799;DHT22;18374;51.136;3.502;2023-09-08T11:01:13;30.20;99.90
31799;DHT22;18374;51.136;3.502;2023-09-08T11:03:45;30.10;99.90
31799;DHT22;18374;51.136;3.502;2023-09-08T11:06:17;30.10;99.90
31799;DHT22;18374;51.136;3.502;2023-09-08T11:08:46;30.20;99.90
31799;DHT22;18374;51.136;3.502;2023-09-08T11:11:16;30.20;99.90
31799;DHT22;18374;51.136;3.502;2023-09-08T11:13:44;30.00;99.90
31799;DHT22;18374;51.136;3.502;2023-09-08T11:16:15;30.10;99.90
31799;DHT22;18374;51.136;3.502;2023-09-08T11:18:43;30.10;99.90
31799;DHT22;18374;51.136;3.502;2023-09-08T11:21:11;30.20;99.90
31799;DHT22;18374;51.136;3.502;2023-09-08T11:23:39;30.30;99.90
31799;DHT22;18374;51.136;3.502;2023-09-08T11:26:07;30.30;99.90
31799;DHT22;18374;51.136;3.502;2023-09-08T11:28:36;30.20;99.90
31799;DHT22;18374;51.136;3.502;2023-09-08T11:31:04;30.30;99.90
31799;DHT22;18374;51.136;3.502;2023-09-08T11:33:34;30.40;99.90
31799;DHT22;18374;51.136;3.502;2023-09-08T11:36:13;30.40;99.90
31799;DHT22;18374;51.136;3.502;2023-09-08T11:38:43;30.30;99.90
31799;DHT22;18374;51.136;3.502;2023-09-08T11:41:12;30.60;99.90
31799;DHT22;18374;51.136;3.502;2023-09-08T11:43:40;30.60;99.90
31799;DHT22;18374;51.136;3.502;2023-09-08T11:46:08;30.60;99.90
31799;DHT22;18374;51.136;3.502;2023-09-08T11:48:38;30.70;99.90
31799;DHT22;18374;51.136;3.502;2023-09-08T11:51:07;30.60;99.90
31799;DHT22;18374;51.136;3.502;2023-09-08T11:53:37;30.70;99.90
31799;DHT22;18374;51.136;3.502;2023-09-08T11:56:05;30.60;99.90
31799;DHT22;18374;51.136;3.502;2023-09-08T11:58:33;30.70;99.90
31799;DHT22;18374;51.136;3.502;2023-09-08T12:01:03;30.60;99.90
31799;DHT22;18374;51.136;3.502;2023-09-08T12:03:31;30.50;99.90
31799;DHT22;18374;51.136;3.502;2023-09-08T12:05:59;30.60;99.90
31799;DHT22;18374;51.136;3.502;2023-09-08T12:08:29;30.60;99.90
31799;DHT22;18374;51.136;3.502;2023-09-08T12:10:58;30.60;99.90
31799;DHT22;18374;51.136;3.502;2023-09-08T12:13:26;30.40;99.90
31799;DHT22;18374;51.136;3.502;2023-09-08T12:15:53;30.30;99.90
31799;DHT22;18374;51.136;3.502;2023-09-08T12:18:37;30.30;99.90
31799;DHT22;18374;51.136;3.502;2023-09-08T12:21:06;30.50;99.90
31799;DHT22;18374;51.136;3.502;2023-09-08T12:23:34;30.20;99.90
31799;DHT22;18374;51.136;3.502;2023-09-08T12:26:18;30.20;99.90
31799;DHT22;18374;51.136;3.502;2023-09-08T12:28:46;30.20;99.90
31799;DHT22;18374;51.136;3.502;2023-09-08T12:31:14;30.20;99.90
31799;DHT22;18374;51.136;3.502;2023-09-08T12:33:43;30.20;99.70
31799;DHT22;18374;51.136;3.502;2023-09-08T12:36:16;30.20;99.50
31799;DHT22;18374;51.136;3.502;2023-09-08T12:38:51;30.20;99.90
31799;DHT22;18374;51.136;3.502;2023-09-08T12:41:20;30.20;99.90
31799;DHT22;18374;51.136;3.502;2023-09-08T12:43:47;30.10;99.90
31799;DHT22;18374;51.136;3.502;2023-09-08T12:46:17;30.20;99.90
31799;DHT22;18374;51.136;3.502;2023-09-08T12:48:46;30.20;99.90
31799;DHT22;18374;51.136;3.502;2023-09-08T12:51:13;30.30;99.50
31799;DHT22;18374;51.136;3.502;2023-09-08T12:53:41;30.50;98.80
31799;DHT22;18374;51.136;3.502;2023-09-08T12:56:09;30.80;98.80
31799;DHT22;18374;51.136;3.502;2023-09-08T12:58:37;30.90;96.90
31799;DHT22;18374;51.136;3.502;2023-09-08T13:01:05;31.10;98.00
31799;DHT22;18374;51.136;3.502;2023-09-08T13:03:34;31.40;97.30
31799;DHT22;18374;51.136;3.502;2023-09-08T13:06:02;31.60;97.40
31799;DHT22;18374;51.136;3.502;2023-09-08T13:08:31;31.70;97.40
31799;DHT22;18374;51.136;3.502;2023-09-08T13:10:59;32.10;97.30
31799;DHT22;18374;51.136;3.502;2023-09-08T13:13:26;32.40;97.40
31799;DHT22;18374;51.136;3.502;2023-09-08T13:15:56;32.90;96.00
31799;DHT22;18374;51.136;3.502;2023-09-08T13:18:24;33.40;94.40
31799;DHT22;18374;51.136;3.502;2023-09-08T13:20:52;33.50;94.00
31799;DHT22;18374;51.136;3.502;2023-09-08T13:23:20;33.80;92.80
31799;DHT22;18374;51.136;3.502;2023-09-08T13:25:48;34.10;93.30
31799;DHT22;18374;51.136;3.502;2023-09-08T13:28:15;34.50;93.50
31799;DHT22;18374;51.136;3.502;2023-09-08T13:30:43;34.90;92.20
31799;DHT22;18374;51.136;3.502;2023-09-08T13:33:11;34.80;91.20
31799;DHT22;18374;51.136;3.502;2023-09-08T13:35:38;34.90;91.20
31799;DHT22;18374;51.136;3.502;2023-09-08T13:38:06;34.90;91.20
31799;DHT22;18374;51.136;3.502;2023-09-08T13:40:34;35.00;91.80
31799;DHT22;18374;51.136;3.502;2023-09-08T13:43:02;34.70;92.00
31799;DHT22;18374;51.136;3.502;2023-09-08T13:45:30;34.40;92.80
31799;DHT22;18374;51.136;3.502;2023-09-08T13:47:58;34.20;93.30
31799;DHT22;18374;51.136;3.502;2023-09-08T13:50:27;34.00;93.40
31799;DHT22;18374;51.136;3.502;2023-09-08T13:52:57;33.70;93.30
31799;DHT22;18374;51.136;3.502;2023-09-08T13:55:25;33.10;93.80
31799;DHT22;18374;51.136;3.502;2023-09-08T13:57:56;32.60;95.20
31799;DHT22;18374;51.136;3.502;2023-09-08T14:00:28;32.00;95.50
31799;DHT22;18374;51.136;3.502;2023-09-08T14:02:58;31.30;96.00
31799;DHT22;18374;51.136;3.502;2023-09-08T14:05:31;31.00;97.80
31799;DHT22;18374;51.136;3.502;2023-09-08T14:08:04;30.70;98.70
31799;DHT22;18374;51.136;3.502;2023-09-08T14:10:44;30.50;98.30
31799;DHT22;18374;51.136;3.502;2023-09-08T14:13:15;30.30;96.50
31799;DHT22;18374;51.136;3.502;2023-09-08T14:15:43;30.20;96.80
31799;DHT22;18374;51.136;3.502;2023-09-08T14:18:11;30.30;95.90
31799;DHT22;18374;51.136;3.502;2023-09-08T14:20:42;30.30;96.70
31799;DHT22;18374;51.136;3.502;2023-09-08T14:23:09;30.10;98.90
31799;DHT22;18374;51.136;3.502;2023-09-08T14:25:37;30.10;99.50
31799;DHT22;18374;51.136;3.502;2023-09-08T14:28:05;29.80;99.90
31799;DHT22;18374;51.136;3.502;2023-09-08T14:30:34;29.60;99.90
31799;DHT22;18374;51.136;3.502;2023-09-08T14:33:03;29.60;99.90
31799;DHT22;18374;51.136;3.502;2023-09-08T14:35:31;29.40;99.90
31799;DHT22;18374;51.136;3.502;2023-09-08T14:37:59;29.40;99.90
31799;DHT22;18374;51.136;3.502;2023-09-08T14:40:26;29.60;99.90
31799;DHT22;18374;51.136;3.502;2023-09-08T14:42:54;29.80;99.90
31799;DHT22;18374;51.136;3.502;2023-09-08T14:45:22;30.10;99.90
31799;DHT22;18374;51.136;3.502;2023-09-08T14:47:50;30.40;99.90
31799;DHT22;18374;51.136;3.502;2023-09-08T14:50:18;30.30;99.90
31799;DHT22;18374;51.136;3.502;2023-09-08T14:52:45;30.30;99.90
31799;DHT22;18374;51.136;3.502;2023-09-08T14:55:13;30.50;99.90
31799;DHT22;18374;51.136;3.502;2023-09-08T14:57:41;30.90;99.60
31799;DHT22;18374;51.136;3.502;2023-09-08T15:00:10;31.20;97.70
31799;DHT22;18374;51.136;3.502;2023-09-08T15:02:38;31.50;96.90
31799;DHT22;18374;51.136;3.502;2023-09-08T15:05:06;31.70;95.80
31799;DHT22;18374;51.136;3.502;2023-09-08T15:07:34;31.80;95.90
31799;DHT22;18374;51.136;3.502;2023-09-08T15:10:02;32.30;95.10
31799;DHT22;18374;51.136;3.502;2023-09-08T15:12:31;32.50;95.00
31799;DHT22;18374;51.136;3.502;2023-09-08T15:14:59;32.50;95.10
31799;DHT22;18374;51.136;3.502;2023-09-08T15:17:27;32.40;95.00
31799;DHT22;18374;51.136;3.502;2023-09-08T15:19:54;32.80;94.30
31799;DHT22;18374;51.136;3.502;2023-09-08T15:22:22;33.40;93.60
31799;DHT22;18374;51.136;3.502;2023-09-08T15:24:50;33.50;93.90
31799;DHT22;18374;51.136;3.502;2023-09-08T15:27:17;32.90;93.90
31799;DHT22;18374;51.136;3.502;2023-09-08T15:29:45;31.80;95.70
31799;DHT22;18374;51.136;3.502;2023-09-08T15:32:13;31.20;96.00
31799;DHT22;18374;51.136;3.502;2023-09-08T15:34:40;30.50;97.60
31799;DHT22;18374;51.136;3.502;2023-09-08T15:37:10;29.90;98.30
31799;DHT22;18374;51.136;3.502;2023-09-08T15:39:38;29.40;99.00
31799;DHT22;18374;51.136;3.502;2023-09-08T15:42:06;28.90;99.20
31799;DHT22;18374;51.136;3.502;2023-09-08T15:44:34;28.60;99.80
31799;DHT22;18374;51.136;3.502;2023-09-08T15:47:01;28.30;99.80